sensor_id;sensor_type;location;lat;lon;timestamp;P1;durP1;ratioP1;P2;durP2;ratioP2
55053;SDS011;40954;45.668;18.980;2022-09-28T00:01:44;3.53;;;2.45;;
55053;SDS011;40954;45.668;18.980;2022-09-28T00:04:10;5.35;;;2.28;;
55053;SDS011;40954;45.668;18.980;2022-09-28T00:06:36;3.55;;;2.47;;
55053;SDS011;40954;45.668;18.980;2022-09-28T00:09:03;2.85;;;2.60;;
55053;SDS011;40954;45.668;18.980;2022-09-28T00:11:29;3.10;;;2.60;;
55053;SDS011;40954;45.668;18.980;2022-09-28T00:13:59;2.90;;;2.50;;
55053;SDS011;40954;45.668;18.980;2022-09-28T00:16:31;3.78;;;2.33;;
55053;SDS011;40954;45.668;18.980;2022-09-28T00:18:58;10.70;;;2.72;;
55053;SDS011;40954;45.668;18.980;2022-09-28T00:21:25;3.88;;;2.63;;
55053;SDS011;40954;45.668;18.980;2022-09-28T00:23:52;3.47;;;2.63;;
55053;SDS011;40954;45.668;18.980;2022-09-28T00:26:37;3.30;;;3.00;;
55053;SDS011;40954;45.668;18.980;2022-09-28T00:29:05;2.80;;;2.50;;
55053;SDS011;40954;45.668;18.980;2022-09-28T00:31:32;3.53;;;2.60;;
55053;SDS011;40954;45.668;18.980;2022-09-28T00:33:59;2.45;;;2.25;;
55053;SDS011;40954;45.668;18.980;2022-09-28T00:36:26;6.00;;;3.15;;
55053;SDS011;40954;45.668;18.980;2022-09-28T00:38:53;2.50;;;2.30;;
55053;SDS011;40954;45.668;18.980;2022-09-28T00:41:20;3.75;;;2.78;;
55053;SDS011;40954;45.668;18.980;2022-09-28T00:43:47;3.55;;;3.05;;
55053;SDS011;40954;45.668;18.980;2022-09-28T00:48:39;3.88;;;2.55;;
55053;SDS011;40954;45.668;18.980;2022-09-28T00:51:08;4.95;;;2.88;;
55053;SDS011;40954;45.668;18.980;2022-09-28T00:53:36;3.60;;;2.67;;
55053;SDS011;40954;45.668;18.980;2022-09-28T00:56:04;3.13;;;2.83;;
55053;SDS011;40954;45.668;18.980;2022-09-28T00:58:34;3.45;;;2.65;;
55053;SDS011;40954;45.668;18.980;2022-09-28T01:01:01;3.00;;;2.70;;
55053;SDS011;40954;45.668;18.980;2022-09-28T01:03:28;6.03;;;2.53;;
55053;SDS011;40954;45.668;18.980;2022-09-28T01:05:55;4.40;;;2.58;;
55053;SDS011;40954;45.668;18.980;2022-09-28T01:08:22;7.43;;;2.60;;
55053;SDS011;40954;45.668;18.980;2022-09-28T01:10:51;4.13;;;3.03;;
55053;SDS011;40954;45.668;18.980;2022-09-28T01:13:17;6.13;;;3.70;;
55053;SDS011;40954;45.668;18.980;2022-09-28T01:18:21;4.25;;;3.10;;
55053;SDS011;40954;45.668;18.980;2022-09-28T01:23:29;4.38;;;2.85;;
55053;SDS011;40954;45.668;18.980;2022-09-28T01:26:09;2.80;;;2.60;;
55053;SDS011;40954;45.668;18.980;2022-09-28T01:28:36;3.85;;;2.95;;
55053;SDS011;40954;45.668;18.980;2022-09-28T01:31:09;2.22;;;2.10;;
55053;SDS011;40954;45.668;18.980;2022-09-28T01:33:56;2.65;;;2.45;;
55053;SDS011;40954;45.668;18.980;2022-09-28T01:36:24;3.05;;;2.75;;
55053;SDS011;40954;45.668;18.980;2022-09-28T01:38:52;3.03;;;2.47;;
55053;SDS011;40954;45.668;18.980;2022-09-28T01:41:20;2.33;;;2.20;;
55053;SDS011;40954;45.668;18.980;2022-09-28T01:43:49;3.92;;;2.30;;
55053;SDS011;40954;45.668;18.980;2022-09-28T01:46:20;3.50;;;2.65;;
55053;SDS011;40954;45.668;18.980;2022-09-28T01:51:18;2.97;;;2.67;;
55053;SDS011;40954;45.668;18.980;2022-09-28T01:53:50;2.50;;;2.33;;
55053;SDS011;40954;45.668;18.980;2022-09-28T01:56:20;4.70;;;3.00;;
55053;SDS011;40954;45.668;18.980;2022-09-28T01:58:49;10.32;;;3.67;;
55053;SDS011;40954;45.668;18.980;2022-09-28T02:01:20;7.80;;;3.75;;
55053;SDS011;40954;45.668;18.980;2022-09-28T02:06:51;5.93;;;3.78;;
55053;SDS011;40954;45.668;18.980;2022-09-28T02:09:22;3.85;;;3.45;;
55053;SDS011;40954;45.668;18.980;2022-09-28T02:11:51;4.90;;;2.70;;
55053;SDS011;40954;45.668;18.980;2022-09-28T02:14:19;5.35;;;2.75;;
55053;SDS011;40954;45.668;18.980;2022-09-28T02:16:46;2.78;;;2.50;;
55053;SDS011;40954;45.668;18.980;2022-09-28T02:24:20;4.32;;;2.90;;
55053;SDS011;40954;45.668;18.980;2022-09-28T02:26:48;5.00;;;3.50;;
55053;SDS011;40954;45.668;18.980;2022-09-28T02:29:15;4.20;;;3.60;;
55053;SDS011;40954;45.668;18.980;2022-09-28T02:31:41;4.38;;;3.83;;
55053;SDS011;40954;45.668;18.980;2022-09-28T02:34:07;8.27;;;4.60;;
55053;SDS011;40954;45.668;18.980;2022-09-28T02:36:34;6.15;;;4.53;;
55053;SDS011;40954;45.668;18.980;2022-09-28T02:39:00;6.13;;;4.32;;
55053;SDS011;40954;45.668;18.980;2022-09-28T02:47:35;3.53;;;2.78;;
55053;SDS011;40954;45.668;18.980;2022-09-28T02:50:01;3.45;;;2.80;;
55053;SDS011;40954;45.668;18.980;2022-09-28T03:00:20;2.80;;;2.60;;
55053;SDS011;40954;45.668;18.980;2022-09-28T03:05:44;5.60;;;3.13;;
55053;SDS011;40954;45.668;18.980;2022-09-28T03:08:19;3.53;;;3.00;;
55053;SDS011;40954;45.668;18.980;2022-09-28T03:13:31;5.72;;;2.95;;
55053;SDS011;40954;45.668;18.980;2022-09-28T03:16:06;5.78;;;2.63;;
55053;SDS011;40954;45.668;18.980;2022-09-28T03:18:32;3.28;;;3.00;;
55053;SDS011;40954;45.668;18.980;2022-09-28T03:20:58;4.65;;;2.70;;
55053;SDS011;40954;45.668;18.980;2022-09-28T03:23:25;3.45;;;2.70;;
55053;SDS011;40954;45.668;18.980;2022-09-28T03:25:51;3.38;;;3.08;;
55053;SDS011;40954;45.668;18.980;2022-09-28T03:28:17;4.40;;;2.97;;
55053;SDS011;40954;45.668;18.980;2022-09-28T03:30:45;6.50;;;3.20;;
55053;SDS011;40954;45.668;18.980;2022-09-28T03:33:11;5.07;;;3.13;;
55053;SDS011;40954;45.668;18.980;2022-09-28T03:35:37;3.92;;;3.20;;
55053;SDS011;40954;45.668;18.980;2022-09-28T03:38:03;3.42;;;2.78;;
55053;SDS011;40954;45.668;18.980;2022-09-28T03:40:29;3.78;;;3.03;;
55053;SDS011;40954;45.668;18.980;2022-09-28T03:42:55;6.80;;;3.85;;
55053;SDS011;40954;45.668;18.980;2022-09-28T03:45:21;3.88;;;3.15;;
55053;SDS011;40954;45.668;18.980;2022-09-28T03:47:47;4.55;;;2.92;;
55053;SDS011;40954;45.668;18.980;2022-09-28T03:50:13;3.90;;;3.30;;
55053;SDS011;40954;45.668;18.980;2022-09-28T03:52:41;2.92;;;2.72;;
55053;SDS011;40954;45.668;18.980;2022-09-28T03:55:07;3.22;;;2.85;;
55053;SDS011;40954;45.668;18.980;2022-09-28T03:57:33;3.67;;;3.03;;
55053;SDS011;40954;45.668;18.980;2022-09-28T03:59:59;5.07;;;3.10;;
55053;SDS011;40954;45.668;18.980;2022-09-28T04:02:25;5.07;;;3.60;;
55053;SDS011;40954;45.668;18.980;2022-09-28T04:04:51;4.43;;;3.00;;
55053;SDS011;40954;45.668;18.980;2022-09-28T04:07:17;9.57;;;4.93;;
55053;SDS011;40954;45.668;18.980;2022-09-28T04:09:43;4.50;;;3.83;;
55053;SDS011;40954;45.668;18.980;2022-09-28T04:12:09;6.93;;;3.30;;
55053;SDS011;40954;45.668;18.980;2022-09-28T04:14:35;3.40;;;3.10;;
55053;SDS011;40954;45.668;18.980;2022-09-28T04:17:01;5.32;;;2.70;;
55053;SDS011;40954;45.668;18.980;2022-09-28T04:19:29;3.40;;;3.05;;
55053;SDS011;40954;45.668;18.980;2022-09-28T04:21:55;8.52;;;3.15;;
55053;SDS011;40954;45.668;18.980;2022-09-28T04:24:21;2.85;;;2.65;;
55053;SDS011;40954;45.668;18.980;2022-09-28T04:26:47;4.80;;;2.78;;
55053;SDS011;40954;45.668;18.980;2022-09-28T04:29:13;2.28;;;2.17;;
55053;SDS011;40954;45.668;18.980;2022-09-28T04:31:44;3.55;;;2.20;;
55053;SDS011;40954;45.668;18.980;2022-09-28T04:34:11;2.85;;;2.58;;
55053;SDS011;40954;45.668;18.980;2022-09-28T04:36:38;3.20;;;2.90;;
55053;SDS011;40954;45.668;18.980;2022-09-28T04:39:04;3.55;;;2.47;;
55053;SDS011;40954;45.668;18.980;2022-09-28T04:41:31;3.05;;;2.78;;
55053;SDS011;40954;45.668;18.980;2022-09-28T04:43:57;4.97;;;3.10;;
55053;SDS011;40954;45.668;18.980;2022-09-28T04:46:23;6.57;;;3.67;;
55053;SDS011;40954;45.668;18.980;2022-09-28T04:48:50;6.90;;;5.03;;
55053;SDS011;40954;45.668;18.980;2022-09-28T04:51:16;6.30;;;3.90;;
55053;SDS011;40954;45.668;18.980;2022-09-28T04:53:42;5.35;;;3.47;;
55053;SDS011;40954;45.668;18.980;2022-09-28T04:56:12;4.38;;;2.97;;
55053;SDS011;40954;45.668;18.980;2022-09-28T04:58:38;5.72;;;3.42;;
55053;SDS011;40954;45.668;18.980;2022-09-28T05:01:06;6.20;;;4.30;;
55053;SDS011;40954;45.668;18.980;2022-09-28T05:03:32;6.55;;;4.47;;
55053;SDS011;40954;45.668;18.980;2022-09-28T05:05:58;8.35;;;6.78;;
55053;SDS011;40954;45.668;18.980;2022-09-28T05:08:25;9.82;;;6.68;;
55053;SDS011;40954;45.668;18.980;2022-09-28T05:10:58;11.23;;;6.65;;
55053;SDS011;40954;45.668;18.980;2022-09-28T05:13:24;9.23;;;6.00;;
55053;SDS011;40954;45.668;18.980;2022-09-28T05:15:51;10.57;;;5.25;;
55053;SDS011;40954;45.668;18.980;2022-09-28T05:18:17;8.73;;;5.30;;
55053;SDS011;40954;45.668;18.980;2022-09-28T05:20:44;8.48;;;4.88;;
55053;SDS011;40954;45.668;18.980;2022-09-28T05:23:10;9.20;;;5.82;;
55053;SDS011;40954;45.668;18.980;2022-09-28T05:25:37;13.60;;;6.22;;
55053;SDS011;40954;45.668;18.980;2022-09-28T05:28:03;9.32;;;5.10;;
55053;SDS011;40954;45.668;18.980;2022-09-28T05:30:31;10.70;;;5.20;;
55053;SDS011;40954;45.668;18.980;2022-09-28T05:32:57;7.63;;;5.82;;
55053;SDS011;40954;45.668;18.980;2022-09-28T05:35:23;12.48;;;4.40;;
55053;SDS011;40954;45.668;18.980;2022-09-28T05:37:50;7.18;;;3.75;;
55053;SDS011;40954;45.668;18.980;2022-09-28T05:40:16;6.95;;;3.88;;
55053;SDS011;40954;45.668;18.980;2022-09-28T05:42:42;9.05;;;3.70;;
55053;SDS011;40954;45.668;18.980;2022-09-28T05:45:09;4.60;;;4.10;;
55053;SDS011;40954;45.668;18.980;2022-09-28T05:47:38;7.28;;;5.10;;
55053;SDS011;40954;45.668;18.980;2022-09-28T05:50:06;9.65;;;5.07;;
55053;SDS011;40954;45.668;18.980;2022-09-28T05:52:32;9.40;;;4.70;;
55053;SDS011;40954;45.668;18.980;2022-09-28T05:54:58;6.18;;;4.53;;
55053;SDS011;40954;45.668;18.980;2022-09-28T05:57:24;8.32;;;4.72;;
55053;SDS011;40954;45.668;18.980;2022-09-28T05:59:50;7.07;;;5.30;;
55053;SDS011;40954;45.668;18.980;2022-09-28T06:02:16;6.75;;;5.93;;
55053;SDS011;40954;45.668;18.980;2022-09-28T06:04:42;6.20;;;5.60;;
55053;SDS011;40954;45.668;18.980;2022-09-28T06:07:08;7.82;;;6.55;;
55053;SDS011;40954;45.668;18.980;2022-09-28T06:09:36;6.55;;;5.95;;
55053;SDS011;40954;45.668;18.980;2022-09-28T06:12:02;8.82;;;8.02;;
55053;SDS011;40954;45.668;18.980;2022-09-28T06:14:28;9.52;;;7.60;;
55053;SDS011;40954;45.668;18.980;2022-09-28T06:16:54;8.48;;;7.65;;
55053;SDS011;40954;45.668;18.980;2022-09-28T06:19:20;6.80;;;6.20;;
55053;SDS011;40954;45.668;18.980;2022-09-28T06:21:47;6.90;;;6.20;;
55053;SDS011;40954;45.668;18.980;2022-09-28T06:24:13;10.57;;;8.60;;
55053;SDS011;40954;45.668;18.980;2022-09-28T06:26:39;8.05;;;7.25;;
55053;SDS011;40954;45.668;18.980;2022-09-28T06:29:05;8.95;;;6.93;;
55053;SDS011;40954;45.668;18.980;2022-09-28T06:31:31;9.40;;;7.32;;
55053;SDS011;40954;45.668;18.980;2022-09-28T06:33:57;10.15;;;8.23;;
55053;SDS011;40954;45.668;18.980;2022-09-28T06:36:29;8.38;;;7.47;;
55053;SDS011;40954;45.668;18.980;2022-09-28T06:38:55;8.60;;;6.22;;
55053;SDS011;40954;45.668;18.980;2022-09-28T06:41:21;11.40;;;6.30;;
55053;SDS011;40954;45.668;18.980;2022-09-28T06:43:48;7.93;;;6.05;;
55053;SDS011;40954;45.668;18.980;2022-09-28T06:46:14;5.90;;;4.65;;
55053;SDS011;40954;45.668;18.980;2022-09-28T06:48:40;8.25;;;5.45;;
55053;SDS011;40954;45.668;18.980;2022-09-28T06:51:08;8.48;;;5.97;;
55053;SDS011;40954;45.668;18.980;2022-09-28T06:53:34;7.07;;;6.15;;
55053;SDS011;40954;45.668;18.980;2022-09-28T06:56:00;7.32;;;6.40;;
55053;SDS011;40954;45.668;18.980;2022-09-28T06:58:26;7.22;;;6.45;;
55053;SDS011;40954;45.668;18.980;2022-09-28T07:00:55;7.53;;;5.68;;
55053;SDS011;40954;45.668;18.980;2022-09-28T07:03:24;8.32;;;5.55;;
55053;SDS011;40954;45.668;18.980;2022-09-28T07:05:51;5.80;;;4.85;;
55053;SDS011;40954;45.668;18.980;2022-09-28T07:08:19;8.32;;;4.80;;
55053;SDS011;40954;45.668;18.980;2022-09-28T07:10:46;8.27;;;4.78;;
55053;SDS011;40954;45.668;18.980;2022-09-28T07:13:13;5.22;;;4.18;;
55053;SDS011;40954;45.668;18.980;2022-09-28T07:15:39;4.97;;;3.63;;
55053;SDS011;40954;45.668;18.980;2022-09-28T07:18:06;3.67;;;2.90;;
55053;SDS011;40954;45.668;18.980;2022-09-28T07:20:33;4.28;;;2.95;;
55053;SDS011;40954;45.668;18.980;2022-09-28T07:23:00;4.35;;;2.70;;
55053;SDS011;40954;45.668;18.980;2022-09-28T07:25:27;3.25;;;2.40;;
55053;SDS011;40954;45.668;18.980;2022-09-28T07:27:57;2.10;;;1.90;;
55053;SDS011;40954;45.668;18.980;2022-09-28T07:30:24;3.45;;;2.00;;
55053;SDS011;40954;45.668;18.980;2022-09-28T07:32:51;2.80;;;2.20;;
55053;SDS011;40954;45.668;18.980;2022-09-28T07:35:17;3.17;;;2.88;;
55053;SDS011;40954;45.668;18.980;2022-09-28T07:37:43;2.75;;;1.90;;
55053;SDS011;40954;45.668;18.980;2022-09-28T07:40:09;1.52;;;1.42;;
55053;SDS011;40954;45.668;18.980;2022-09-28T07:42:54;6.70;;;1.75;;
55053;SDS011;40954;45.668;18.980;2022-09-28T07:45:21;6.22;;;2.55;;
55053;SDS011;40954;45.668;18.980;2022-09-28T07:47:56;1.48;;;1.35;;
55053;SDS011;40954;45.668;18.980;2022-09-28T07:50:22;1.58;;;1.27;;
55053;SDS011;40954;45.668;18.980;2022-09-28T07:52:48;2.25;;;1.27;;
55053;SDS011;40954;45.668;18.980;2022-09-28T07:55:14;3.40;;;1.52;;
55053;SDS011;40954;45.668;18.980;2022-09-28T07:57:40;2.47;;;1.77;;
55053;SDS011;40954;45.668;18.980;2022-09-28T08:00:06;1.05;;;0.82;;
55053;SDS011;40954;45.668;18.980;2022-09-28T08:02:33;3.45;;;0.98;;
55053;SDS011;40954;45.668;18.980;2022-09-28T08:04:59;2.15;;;0.95;;
55053;SDS011;40954;45.668;18.980;2022-09-28T08:07:25;1.27;;;1.08;;
55053;SDS011;40954;45.668;18.980;2022-09-28T08:09:52;0.98;;;0.80;;
55053;SDS011;40954;45.668;18.980;2022-09-28T08:12:18;1.70;;;1.60;;
55053;SDS011;40954;45.668;18.980;2022-09-28T08:14:45;1.75;;;1.27;;
55053;SDS011;40954;45.668;18.980;2022-09-28T08:17:11;1.00;;;0.77;;
55053;SDS011;40954;45.668;18.980;2022-09-28T08:19:37;3.20;;;1.33;;
55053;SDS011;40954;45.668;18.980;2022-09-28T08:22:22;5.45;;;1.60;;
55053;SDS011;40954;45.668;18.980;2022-09-28T08:24:48;1.50;;;1.40;;
55053;SDS011;40954;45.668;18.980;2022-09-28T08:27:14;2.63;;;1.38;;
55053;SDS011;40954;45.668;18.980;2022-09-28T08:29:41;1.60;;;1.42;;
55053;SDS011;40954;45.668;18.980;2022-09-28T08:32:07;2.92;;;2.60;;
55053;SDS011;40954;45.668;18.980;2022-09-28T08:34:37;4.68;;;2.05;;
55053;SDS011;40954;45.668;18.980;2022-09-28T08:37:03;4.50;;;2.45;;
55053;SDS011;40954;45.668;18.980;2022-09-28T08:39:29;2.17;;;1.92;;
55053;SDS011;40954;45.668;18.980;2022-09-28T08:44:26;1.65;;;0.88;;
55053;SDS011;40954;45.668;18.980;2022-09-28T08:46:57;7.47;;;6.28;;
55053;SDS011;40954;45.668;18.980;2022-09-28T08:52:02;2.00;;;1.77;;
55053;SDS011;40954;45.668;18.980;2022-09-28T08:57:00;1.83;;;1.63;;
55053;SDS011;40954;45.668;18.980;2022-09-28T09:02:15;2.13;;;1.48;;
55053;SDS011;40954;45.668;18.980;2022-09-28T09:04:41;1.10;;;1.00;;
55053;SDS011;40954;45.668;18.980;2022-09-28T09:27:12;1.70;;;1.27;;
55053;SDS011;40954;45.668;18.980;2022-09-28T09:29:42;1.80;;;0.88;;
55053;SDS011;40954;45.668;18.980;2022-09-28T09:34:56;1.92;;;0.80;;
55053;SDS011;40954;45.668;18.980;2022-09-28T09:48:14;2.05;;;1.10;;
55053;SDS011;40954;45.668;18.980;2022-09-28T09:50:54;0.60;;;0.50;;
55053;SDS011;40954;45.668;18.980;2022-09-28T09:55:49;1.10;;;1.00;;
55053;SDS011;40954;45.668;18.980;2022-09-28T09:58:24;1.05;;;1.05;;
55053;SDS011;40954;45.668;18.980;2022-09-28T10:00:52;0.68;;;0.63;;
55053;SDS011;40954;45.668;18.980;2022-09-28T10:03:26;1.33;;;0.70;;
55053;SDS011;40954;45.668;18.980;2022-09-28T10:05:54;1.20;;;0.70;;
55053;SDS011;40954;45.668;18.980;2022-09-28T10:08:22;0.50;;;0.50;;
55053;SDS011;40954;45.668;18.980;2022-09-28T10:10:50;0.98;;;0.98;;
55053;SDS011;40954;45.668;18.980;2022-09-28T10:13:17;1.08;;;0.85;;
55053;SDS011;40954;45.668;18.980;2022-09-28T10:15:44;5.78;;;1.60;;
55053;SDS011;40954;45.668;18.980;2022-09-28T10:18:15;1.58;;;0.65;;
55053;SDS011;40954;45.668;18.980;2022-09-28T10:20:43;2.33;;;0.90;;
55053;SDS011;40954;45.668;18.980;2022-09-28T10:23:14;2.33;;;1.10;;
55053;SDS011;40954;45.668;18.980;2022-09-28T10:25:42;1.75;;;1.65;;
55053;SDS011;40954;45.668;18.980;2022-09-28T10:28:13;0.85;;;0.80;;
55053;SDS011;40954;45.668;18.980;2022-09-28T10:30:40;1.08;;;1.08;;
55053;SDS011;40954;45.668;18.980;2022-09-28T10:33:30;0.80;;;0.80;;
55053;SDS011;40954;45.668;18.980;2022-09-28T10:35:54;1.50;;;0.73;;
55053;SDS011;40954;45.668;18.980;2022-09-28T10:38:20;1.02;;;1.00;;
55053;SDS011;40954;45.668;18.980;2022-09-28T10:40:57;2.53;;;1.25;;
55053;SDS011;40954;45.668;18.980;2022-09-28T10:48:28;2.15;;;0.55;;
55053;SDS011;40954;45.668;18.980;2022-09-28T10:50:59;1.25;;;0.77;;
55053;SDS011;40954;45.668;18.980;2022-09-28T10:53:26;0.73;;;0.73;;
55053;SDS011;40954;45.668;18.980;2022-09-28T10:55:56;0.70;;;0.70;;
55053;SDS011;40954;45.668;18.980;2022-09-28T10:58:39;1.10;;;1.00;;
55053;SDS011;40954;45.668;18.980;2022-09-28T11:01:15;0.65;;;0.65;;
55053;SDS011;40954;45.668;18.980;2022-09-28T11:06:15;1.55;;;1.45;;
55053;SDS011;40954;45.668;18.980;2022-09-28T11:08:47;1.15;;;1.00;;
55053;SDS011;40954;45.668;18.980;2022-09-28T11:11:14;0.60;;;0.60;;
55053;SDS011;40954;45.668;18.980;2022-09-28T11:13:43;1.05;;;0.40;;
55053;SDS011;40954;45.668;18.980;2022-09-28T11:16:17;0.88;;;0.82;;
55053;SDS011;40954;45.668;18.980;2022-09-28T11:18:43;0.90;;;0.60;;
55053;SDS011;40954;45.668;18.980;2022-09-28T11:21:13;1.45;;;0.50;;
55053;SDS011;40954;45.668;18.980;2022-09-28T11:23:39;1.38;;;0.88;;
55053;SDS011;40954;45.668;18.980;2022-09-28T11:26:08;2.55;;;0.90;;
55053;SDS011;40954;45.668;18.980;2022-09-28T11:28:37;2.67;;;0.65;;
55053;SDS011;40954;45.668;18.980;2022-09-28T11:31:05;0.60;;;0.60;;
55053;SDS011;40954;45.668;18.980;2022-09-28T11:33:33;0.60;;;0.57;;
55053;SDS011;40954;45.668;18.980;2022-09-28T11:49:02;3.38;;;0.93;;
55053;SDS011;40954;45.668;18.980;2022-09-28T11:51:30;0.40;;;0.40;;
55053;SDS011;40954;45.668;18.980;2022-09-28T11:54:00;0.43;;;0.40;;
55053;SDS011;40954;45.668;18.980;2022-09-28T11:59:03;0.75;;;0.75;;
55053;SDS011;40954;45.668;18.980;2022-09-28T12:01:33;0.65;;;0.60;;
55053;SDS011;40954;45.668;18.980;2022-09-28T12:04:03;1.92;;;0.70;;
55053;SDS011;40954;45.668;18.980;2022-09-28T12:06:32;0.55;;;0.55;;
55053;SDS011;40954;45.668;18.980;2022-09-28T12:09:02;0.68;;;0.68;;
55053;SDS011;40954;45.668;18.980;2022-09-28T12:11:39;0.65;;;0.65;;
55053;SDS011;40954;45.668;18.980;2022-09-28T12:14:10;1.02;;;0.70;;
55053;SDS011;40954;45.668;18.980;2022-09-28T12:16:43;0.73;;;0.68;;
55053;SDS011;40954;45.668;18.980;2022-09-28T12:19:15;0.80;;;0.80;;
55053;SDS011;40954;45.668;18.980;2022-09-28T12:21:50;1.52;;;0.98;;
55053;SDS011;40954;45.668;18.980;2022-09-28T12:29:37;1.30;;;1.17;;
55053;SDS011;40954;45.668;18.980;2022-09-28T12:34:36;1.35;;;1.08;;
55053;SDS011;40954;45.668;18.980;2022-09-28T12:37:22;7.22;;;3.42;;
55053;SDS011;40954;45.668;18.980;2022-09-28T12:39:56;1.35;;;1.25;;
55053;SDS011;40954;45.668;18.980;2022-09-28T12:46:00;0.93;;;0.75;;
55053;SDS011;40954;45.668;18.980;2022-09-28T12:50:35;1.05;;;1.05;;
55053;SDS011;40954;45.668;18.980;2022-09-28T12:56:11;1.92;;;1.10;;
55053;SDS011;40954;45.668;18.980;2022-09-28T12:58:37;0.55;;;0.55;;
55053;SDS011;40954;45.668;18.980;2022-09-28T13:06:09;0.60;;;0.60;;
55053;SDS011;40954;45.668;18.980;2022-09-28T13:11:07;1.35;;;1.00;;
55053;SDS011;40954;45.668;18.980;2022-09-28T13:16:34;1.02;;;0.93;;
55053;SDS011;40954;45.668;18.980;2022-09-28T13:19:20;1.42;;;1.23;;
55053;SDS011;40954;45.668;18.980;2022-09-28T13:24:34;1.75;;;1.50;;
55053;SDS011;40954;45.668;18.980;2022-09-28T13:27:03;2.05;;;1.33;;
55053;SDS011;40954;45.668;18.980;2022-09-28T13:29:31;1.90;;;1.60;;
55053;SDS011;40954;45.668;18.980;2022-09-28T13:31:58;4.53;;;2.83;;
55053;SDS011;40954;45.668;18.980;2022-09-28T13:34:28;3.90;;;2.10;;
55053;SDS011;40954;45.668;18.980;2022-09-28T13:42:02;5.20;;;3.30;;
55053;SDS011;40954;45.668;18.980;2022-09-28T13:44:35;1.98;;;1.88;;
55053;SDS011;40954;45.668;18.980;2022-09-28T13:52:29;5.00;;;2.20;;
55053;SDS011;40954;45.668;18.980;2022-09-28T14:00:00;7.65;;;4.28;;
55053;SDS011;40954;45.668;18.980;2022-09-28T14:02:47;9.27;;;6.80;;
55053;SDS011;40954;45.668;18.980;2022-09-28T14:10:49;4.68;;;1.95;;
55053;SDS011;40954;45.668;18.980;2022-09-28T14:31:45;5.85;;;2.50;;
55053;SDS011;40954;45.668;18.980;2022-09-28T14:36:57;2.33;;;2.10;;
55053;SDS011;40954;45.668;18.980;2022-09-28T14:39:43;3.53;;;2.17;;
55053;SDS011;40954;45.668;18.980;2022-09-28T14:42:28;2.58;;;2.30;;
55053;SDS011;40954;45.668;18.980;2022-09-28T14:45:40;2.42;;;2.10;;
55053;SDS011;40954;45.668;18.980;2022-09-28T14:47:42;2.53;;;2.33;;
55053;SDS011;40954;45.668;18.980;2022-09-28T14:50:22;2.78;;;2.38;;
55053;SDS011;40954;45.668;18.980;2022-09-28T15:00:07;7.22;;;3.40;;
55053;SDS011;40954;45.668;18.980;2022-09-28T15:02:34;7.40;;;4.45;;
55053;SDS011;40954;45.668;18.980;2022-09-28T15:07:42;4.82;;;2.90;;
55053;SDS011;40954;45.668;18.980;2022-09-28T15:12:47;2.72;;;2.50;;
55053;SDS011;40954;45.668;18.980;2022-09-28T15:15:24;3.00;;;2.78;;
55053;SDS011;40954;45.668;18.980;2022-09-28T15:17:54;5.03;;;3.22;;
55053;SDS011;40954;45.668;18.980;2022-09-28T15:20:29;7.65;;;6.10;;
55053;SDS011;40954;45.668;18.980;2022-09-28T15:25:26;12.23;;;6.65;;
55053;SDS011;40954;45.668;18.980;2022-09-28T15:27:54;8.57;;;5.18;;
55053;SDS011;40954;45.668;18.980;2022-09-28T15:30:28;10.68;;;6.43;;
55053;SDS011;40954;45.668;18.980;2022-09-28T15:32:56;8.45;;;5.78;;
55053;SDS011;40954;45.668;18.980;2022-09-28T15:35:46;7.97;;;5.78;;
55053;SDS011;40954;45.668;18.980;2022-09-28T15:38:14;14.57;;;7.38;;
55053;SDS011;40954;45.668;18.980;2022-09-28T15:40:44;10.98;;;7.78;;
55053;SDS011;40954;45.668;18.980;2022-09-28T15:43:22;14.38;;;7.72;;
55053;SDS011;40954;45.668;18.980;2022-09-28T15:45:57;10.40;;;6.22;;
55053;SDS011;40954;45.668;18.980;2022-09-28T15:48:30;10.98;;;6.50;;
55053;SDS011;40954;45.668;18.980;2022-09-28T15:51:04;13.20;;;8.23;;
55053;SDS011;40954;45.668;18.980;2022-09-28T15:53:35;7.85;;;5.78;;
55053;SDS011;40954;45.668;18.980;2022-09-28T15:56:03;5.68;;;4.75;;
55053;SDS011;40954;45.668;18.980;2022-09-28T15:58:34;5.95;;;4.22;;
55053;SDS011;40954;45.668;18.980;2022-09-28T16:01:17;7.10;;;4.40;;
55053;SDS011;40954;45.668;18.980;2022-09-28T16:03:45;7.15;;;5.82;;
55053;SDS011;40954;45.668;18.980;2022-09-28T16:06:11;10.32;;;7.35;;
55053;SDS011;40954;45.668;18.980;2022-09-28T16:08:42;10.13;;;7.35;;
55053;SDS011;40954;45.668;18.980;2022-09-28T16:16:18;6.18;;;4.82;;
55053;SDS011;40954;45.668;18.980;2022-09-28T16:18:47;4.28;;;3.88;;
55053;SDS011;40954;45.668;18.980;2022-09-28T16:23:53;8.30;;;5.38;;
55053;SDS011;40954;45.668;18.980;2022-09-28T16:26:27;10.68;;;7.00;;
55053;SDS011;40954;45.668;18.980;2022-09-28T16:28:56;8.20;;;5.60;;
55053;SDS011;40954;45.668;18.980;2022-09-28T16:31:23;6.03;;;4.75;;
55053;SDS011;40954;45.668;18.980;2022-09-28T16:33:54;6.22;;;4.70;;
55053;SDS011;40954;45.668;18.980;2022-09-28T16:36:21;6.57;;;4.85;;
55053;SDS011;40954;45.668;18.980;2022-09-28T16:38:47;7.57;;;5.95;;
55053;SDS011;40954;45.668;18.980;2022-09-28T16:41:20;14.60;;;7.78;;
55053;SDS011;40954;45.668;18.980;2022-09-28T16:43:47;16.73;;;8.10;;
55053;SDS011;40954;45.668;18.980;2022-09-28T16:46:15;18.20;;;7.57;;
55053;SDS011;40954;45.668;18.980;2022-09-28T16:48:45;11.25;;;7.03;;
55053;SDS011;40954;45.668;18.980;2022-09-28T16:51:15;12.48;;;6.40;;
55053;SDS011;40954;45.668;18.980;2022-09-28T16:53:42;9.07;;;6.22;;
55053;SDS011;40954;45.668;18.980;2022-09-28T16:56:27;6.68;;;5.47;;
55053;SDS011;40954;45.668;18.980;2022-09-28T16:58:54;6.20;;;4.68;;
55053;SDS011;40954;45.668;18.980;2022-09-28T17:01:20;7.97;;;5.25;;
55053;SDS011;40954;45.668;18.980;2022-09-28T17:03:46;7.47;;;5.70;;
55053;SDS011;40954;45.668;18.980;2022-09-28T17:06:14;8.93;;;5.50;;
55053;SDS011;40954;45.668;18.980;2022-09-28T17:08:41;7.47;;;4.88;;
55053;SDS011;40954;45.668;18.980;2022-09-28T17:11:11;10.02;;;6.82;;
55053;SDS011;40954;45.668;18.980;2022-09-28T17:13:37;9.43;;;7.50;;
55053;SDS011;40954;45.668;18.980;2022-09-28T17:16:04;6.28;;;5.18;;
55053;SDS011;40954;45.668;18.980;2022-09-28T17:18:32;7.53;;;4.85;;
55053;SDS011;40954;45.668;18.980;2022-09-28T17:21:02;6.53;;;4.95;;
55053;SDS011;40954;45.668;18.980;2022-09-28T17:23:29;5.68;;;4.93;;
55053;SDS011;40954;45.668;18.980;2022-09-28T17:25:55;8.13;;;7.13;;
55053;SDS011;40954;45.668;18.980;2022-09-28T17:28:23;12.85;;;9.13;;
55053;SDS011;40954;45.668;18.980;2022-09-28T17:30:50;26.10;;;15.05;;
55053;SDS011;40954;45.668;18.980;2022-09-28T17:33:16;25.23;;;16.83;;
55053;SDS011;40954;45.668;18.980;2022-09-28T17:35:43;27.83;;;19.08;;
55053;SDS011;40954;45.668;18.980;2022-09-28T17:38:10;24.13;;;16.00;;
55053;SDS011;40954;45.668;18.980;2022-09-28T17:40:36;22.80;;;15.75;;
55053;SDS011;40954;45.668;18.980;2022-09-28T17:43:03;22.08;;;13.40;;
55053;SDS011;40954;45.668;18.980;2022-09-28T17:45:30;14.05;;;11.85;;
55053;SDS011;40954;45.668;18.980;2022-09-28T17:47:57;15.75;;;9.27;;
55053;SDS011;40954;45.668;18.980;2022-09-28T17:50:25;18.10;;;8.30;;
55053;SDS011;40954;45.668;18.980;2022-09-28T17:52:52;18.38;;;8.52;;
55053;SDS011;40954;45.668;18.980;2022-09-28T17:55:22;12.07;;;7.50;;
55053;SDS011;40954;45.668;18.980;2022-09-28T17:57:48;10.38;;;7.38;;
55053;SDS011;40954;45.668;18.980;2022-09-28T18:00:16;12.88;;;7.97;;
55053;SDS011;40954;45.668;18.980;2022-09-28T18:02:42;15.77;;;10.00;;
55053;SDS011;40954;45.668;18.980;2022-09-28T18:05:09;15.93;;;12.18;;